createdAt,value
2022-12-14T00:01:25.734Z,-4.20
2022-12-14T00:03:53.613Z,-4.20
2022-12-14T00:06:22.277Z,-4.20
2022-12-14T00:08:51.423Z,-4.10
2022-12-14T00:11:25.031Z,-4.10
2022-12-14T00:13:57.655Z,-4.10
2022-12-14T00:16:26.494Z,-4.00
2022-12-14T00:18:55.866Z,-4.00
2022-12-14T00:21:23.166Z,-4.00
2022-12-14T00:23:51.195Z,-4.00
2022-12-14T00:26:23.444Z,-4.00
2022-12-14T00:28:52.363Z,-3.90
2022-12-14T00:31:20.139Z,-3.90
2022-12-14T00:33:47.450Z,-3.90
2022-12-14T00:36:14.771Z,-3.90
2022-12-14T00:38:42.214Z,-3.80
2022-12-14T00:41:09.826Z,-3.80
2022-12-14T00:43:37.087Z,-3.70
2022-12-14T00:46:03.896Z,-3.70
2022-12-14T00:48:31.545Z,-3.70
2022-12-14T00:50:58.751Z,-3.70
2022-12-14T00:53:25.853Z,-3.70
2022-12-14T00:55:52.765Z,-3.80
2022-12-14T00:58:21.825Z,-3.70
2022-12-14T01:00:59.250Z,-3.70
2022-12-14T01:03:26.637Z,-3.70
2022-12-14T01:05:53.736Z,-3.60
2022-12-14T01:08:20.934Z,-3.60
2022-12-14T01:10:47.674Z,-3.60
2022-12-14T01:13:14.387Z,-3.60
2022-12-14T01:15:41.150Z,-3.50
2022-12-14T01:18:07.953Z,-3.50
2022-12-14T01:20:34.662Z,-3.50
2022-12-14T01:23:01.354Z,-3.50
2022-12-14T01:25:28.191Z,-3.50
2022-12-14T01:27:54.895Z,-3.40
2022-12-14T01:30:21.722Z,-3.40
2022-12-14T01:32:48.531Z,-3.40
2022-12-14T01:35:15.334Z,-3.40
2022-12-14T01:37:41.993Z,-3.50
2022-12-14T01:40:09.204Z,-3.50
2022-12-14T01:42:36.965Z,-3.50
2022-12-14T01:45:05.820Z,-3.50
2022-12-14T01:47:42.963Z,-3.50
2022-12-14T01:50:38.879Z,-3.50
2022-12-14T01:53:11.946Z,-3.50
2022-12-14T01:55:52.058Z,-3.50
2022-12-14T01:58:24.528Z,-3.50
2022-12-14T02:00:58.414Z,-3.50
2022-12-14T02:03:34.896Z,-3.50
2022-12-14T02:06:07.604Z,-3.40
2022-12-14T02:08:35.186Z,-3.40
2022-12-14T02:11:03.018Z,-3.40
2022-12-14T02:13:33.826Z,-3.30
2022-12-14T02:16:00.885Z,-3.30
2022-12-14T02:18:30.423Z,-3.30
2022-12-14T02:21:12.270Z,-3.40
2022-12-14T02:24:14.585Z,-3.40
2022-12-14T02:27:02.976Z,-3.40
2022-12-14T02:29:35.554Z,-3.40
2022-12-14T02:32:11.627Z,-3.40
2022-12-14T02:34:47.214Z,-3.40
2022-12-14T02:37:39.150Z,-3.30
2022-12-14T02:40:38.261Z,-3.30
2022-12-14T02:43:25.573Z,-3.40
2022-12-14T02:46:16.982Z,-3.40
2022-12-14T02:48:49.836Z,-3.40
2022-12-14T02:51:54.717Z,-3.50
2022-12-14T02:54:36.078Z,-3.50
2022-12-14T02:57:19.486Z,-3.50
2022-12-14T02:59:48.879Z,-3.50
2022-12-14T03:02:16.972Z,-3.40
2022-12-14T03:04:48.057Z,-3.40
2022-12-14T03:07:36.773Z,-3.30
2022-12-14T03:10:19.602Z,-3.30
2022-12-14T03:12:54.142Z,-3.30
2022-12-14T03:15:23.310Z,-3.30
2022-12-14T03:17:55.232Z,-3.30
2022-12-14T03:20:26.075Z,-3.30
2022-12-14T03:23:10.924Z,-3.30
2022-12-14T03:25:47.487Z,-3.20
2022-12-14T03:28:32.616Z,-3.20
2022-12-14T03:31:10.587Z,-3.20
2022-12-14T03:33:38.793Z,-3.10
2022-12-14T03:36:11.351Z,-3.10
2022-12-14T03:38:42.976Z,-3.10
2022-12-14T03:41:12.816Z,-3.00
2022-12-14T03:44:08.187Z,-3.00
2022-12-14T03:46:55.178Z,-3.00
2022-12-14T03:49:27.636Z,-3.00
2022-12-14T03:52:13.083Z,-3.10
2022-12-14T03:54:54.766Z,-3.10
2022-12-14T03:57:56.612Z,-3.10
2022-12-14T04:00:24.836Z,-3.10
2022-12-14T04:03:14.274Z,-3.00
2022-12-14T04:05:50.060Z,-3.00
2022-12-14T04:08:26.092Z,-3.00
2022-12-14T04:11:15.781Z,-2.90
2022-12-14T04:14:05.792Z,-2.90
2022-12-14T04:16:53.952Z,-3.00
2022-12-14T04:19:26.718Z,-3.00
2022-12-14T04:22:09.978Z,-2.90
2022-12-14T04:25:02.978Z,-2.90
2022-12-14T04:27:44.939Z,-2.90
2022-12-14T04:30:13.600Z,-2.90
2022-12-14T04:32:42.679Z,-2.90
2022-12-14T04:35:15.146Z,-2.90
2022-12-14T04:37:45.332Z,-2.90
2022-12-14T04:40:27.789Z,-2.90
2022-12-14T04:43:03.241Z,-2.90
2022-12-14T04:45:47.170Z,-2.80
2022-12-14T04:48:38.009Z,-2.90
2022-12-14T04:51:10.906Z,-2.80
2022-12-14T04:53:41.466Z,-2.80
2022-12-14T04:56:24.326Z,-2.70
2022-12-14T04:58:51.293Z,-2.70
2022-12-14T05:01:38.330Z,-2.80
2022-12-14T05:04:17.087Z,-2.80
2022-12-14T05:07:18.163Z,-2.80
2022-12-14T05:09:51.039Z,-2.80
2022-12-14T05:12:23.521Z,-2.80
2022-12-14T05:14:59.040Z,-2.70
2022-12-14T05:17:28.138Z,-2.70
2022-12-14T05:19:54.879Z,-2.70
2022-12-14T05:22:22.611Z,-2.70
2022-12-14T05:24:49.381Z,-2.70
2022-12-14T05:27:16.188Z,-2.60
2022-12-14T05:29:43.043Z,-2.60
2022-12-14T05:32:12.662Z,-2.60
2022-12-14T05:34:39.719Z,-2.60
2022-12-14T05:37:06.447Z,-2.50
2022-12-14T05:39:33.135Z,-2.50
2022-12-14T05:41:59.881Z,-2.50
2022-12-14T05:44:26.602Z,-2.60
2022-12-14T05:46:53.955Z,-2.50
2022-12-14T05:49:20.646Z,-2.50
2022-12-14T05:51:49.227Z,-2.50
2022-12-14T05:54:15.939Z,-2.40
2022-12-14T05:56:42.725Z,-2.40
2022-12-14T05:59:12.615Z,-2.40
2022-12-14T06:01:39.357Z,-2.50
2022-12-14T06:04:06.189Z,-2.50
2022-12-14T06:06:33.854Z,-2.60
2022-12-14T06:09:00.583Z,-2.60
2022-12-14T06:11:27.425Z,-2.60
2022-12-14T06:13:54.192Z,-2.60
2022-12-14T06:16:23.851Z,-2.60
2022-12-14T06:18:56.042Z,-2.50
2022-12-14T06:21:28.462Z,-2.50
2022-12-14T06:23:55.958Z,-2.50
2022-12-14T06:26:23.617Z,-2.50
2022-12-14T06:28:50.700Z,-2.50
2022-12-14T06:31:19.913Z,-2.50
2022-12-14T06:33:47.544Z,-2.50
2022-12-14T06:36:18.952Z,-2.40
2022-12-14T06:38:46.304Z,-2.40
2022-12-14T06:41:13.056Z,-2.40
2022-12-14T06:43:39.903Z,-2.40
2022-12-14T06:46:15.137Z,-2.40
2022-12-14T06:48:42.684Z,-2.40
2022-12-14T06:51:09.923Z,-2.50
2022-12-14T06:53:36.811Z,-2.50
2022-12-14T06:56:10.443Z,-2.50
2022-12-14T06:58:37.701Z,-2.50
2022-12-14T07:01:20.733Z,-2.50
2022-12-14T07:03:53.496Z,-2.50
2022-12-14T07:06:21.703Z,-2.60
2022-12-14T07:08:49.102Z,-2.60
2022-12-14T07:11:17.320Z,-2.60
2022-12-14T07:13:44.348Z,-2.60
2022-12-14T07:16:17.055Z,-2.60
2022-12-14T07:18:44.068Z,-2.60
2022-12-14T07:21:13.402Z,-2.70
2022-12-14T07:23:42.744Z,-2.70
2022-12-14T07:26:15.328Z,-2.70
2022-12-14T07:28:42.748Z,-2.60
2022-12-14T07:31:28.770Z,-2.60
2022-12-14T07:33:57.744Z,-2.60
2022-12-14T07:36:26.872Z,-2.60
2022-12-14T07:38:55.774Z,-2.60
2022-12-14T07:41:29.385Z,-2.50
2022-12-14T07:43:56.960Z,-2.50
2022-12-14T07:46:25.973Z,-2.50
2022-12-14T07:48:54.926Z,-2.50
2022-12-14T07:51:25.310Z,-2.50
2022-12-14T07:53:52.610Z,-2.40
2022-12-14T07:56:22.665Z,-2.40
2022-12-14T07:58:49.412Z,-2.40
2022-12-14T08:01:18.547Z,-2.40
2022-12-14T08:03:50.731Z,-2.40
2022-12-14T08:06:19.212Z,-2.40
2022-12-14T08:08:46.423Z,-2.40
2022-12-14T08:11:14.042Z,-2.30
2022-12-14T08:13:43.072Z,-2.40
2022-12-14T08:16:13.702Z,-2.30
2022-12-14T08:18:41.231Z,-2.30
2022-12-14T08:21:09.668Z,-2.20
2022-12-14T08:23:37.556Z,-2.20
2022-12-14T08:26:06.303Z,-2.20
2022-12-14T08:28:35.804Z,-2.10
2022-12-14T08:31:14.173Z,-2.10
2022-12-14T08:33:41.983Z,-2.00
2022-12-14T08:36:18.009Z,-2.00
2022-12-14T08:38:45.298Z,-1.90
2022-12-14T08:41:13.897Z,-1.80
2022-12-14T08:43:41.196Z,-1.80
2022-12-14T08:46:09.265Z,-1.80
2022-12-14T08:48:36.849Z,-1.80
2022-12-14T08:51:09.681Z,-1.70
2022-12-14T08:53:38.046Z,-1.70
2022-12-14T08:56:10.600Z,-1.70
2022-12-14T08:58:39.111Z,-1.60
2022-12-14T09:01:07.469Z,-1.50
2022-12-14T09:03:34.728Z,-1.40
2022-12-14T09:06:03.311Z,-1.40
2022-12-14T09:08:31.036Z,-1.30
2022-12-14T09:10:57.796Z,-1.20
2022-12-14T09:13:24.519Z,-1.20
2022-12-14T09:16:02.330Z,-1.10
2022-12-14T09:18:30.155Z,-1.00
2022-12-14T09:20:57.600Z,-0.90
2022-12-14T09:23:25.858Z,-0.90
2022-12-14T09:26:22.648Z,-0.80
2022-12-14T09:28:54.279Z,-0.80
2022-12-14T09:31:23.819Z,-0.70
2022-12-14T09:33:51.210Z,-0.70
2022-12-14T09:36:23.361Z,-0.60
2022-12-14T09:38:52.518Z,-0.60
2022-12-14T09:41:37.936Z,-0.50
2022-12-14T09:44:25.491Z,-0.50
2022-12-14T09:46:54.922Z,-0.50
2022-12-14T09:49:40.032Z,-0.60
2022-12-14T09:52:15.779Z,-0.60
2022-12-14T09:54:44.418Z,-0.70
2022-12-14T09:57:18.556Z,-0.70
2022-12-14T09:59:45.316Z,-0.60
2022-12-14T10:02:50.483Z,-0.70
2022-12-14T10:05:21.211Z,-0.60
2022-12-14T10:08:09.174Z,-0.60
2022-12-14T10:10:44.577Z,-0.50
2022-12-14T10:13:11.265Z,-0.40
2022-12-14T10:15:37.991Z,-0.30
2022-12-14T10:18:27.481Z,-0.20
2022-12-14T10:21:11.706Z,-0.10
2022-12-14T10:24:06.836Z,0.00
2022-12-14T10:26:44.088Z,0.00
2022-12-14T10:29:17.788Z,0.00
2022-12-14T10:31:53.225Z,0.00
2022-12-14T10:34:23.524Z,0.00
2022-12-14T10:37:30.700Z,0.00
2022-12-14T10:40:16.403Z,0.00
2022-12-14T10:43:08.373Z,0.10
2022-12-14T10:45:40.795Z,0.10
2022-12-14T10:48:26.527Z,0.20
2022-12-14T10:51:00.017Z,0.20
2022-12-14T10:53:41.147Z,0.20
2022-12-14T10:56:16.251Z,0.30
2022-12-14T10:58:42.987Z,0.30
2022-12-14T11:01:14.811Z,0.40
2022-12-14T11:03:43.816Z,0.50
2022-12-14T11:06:19.040Z,0.70
2022-12-14T11:08:48.554Z,0.80
2022-12-14T11:11:24.741Z,0.90
2022-12-14T11:14:09.388Z,1.00
2022-12-14T11:16:39.832Z,1.10
2022-12-14T11:19:16.778Z,1.10
2022-12-14T11:21:44.126Z,1.00
2022-12-14T11:24:28.210Z,1.00
2022-12-14T11:27:01.436Z,0.90
2022-12-14T11:29:34.610Z,0.90
2022-12-14T11:32:01.779Z,0.90
2022-12-14T11:34:39.933Z,1.00
2022-12-14T11:37:14.363Z,1.00
2022-12-14T11:39:44.987Z,1.10
2022-12-14T11:42:19.047Z,1.10
2022-12-14T11:44:47.600Z,1.20
2022-12-14T11:47:21.587Z,1.20
2022-12-14T11:49:57.730Z,1.30
2022-12-14T11:52:26.217Z,1.50
2022-12-14T11:54:52.902Z,1.60
2022-12-14T11:57:26.877Z,1.80
2022-12-14T11:59:57.604Z,1.90
2022-12-14T12:02:30.056Z,2.00
2022-12-14T12:04:58.997Z,1.90
2022-12-14T12:07:33.892Z,1.90
2022-12-14T12:10:07.936Z,1.80
2022-12-14T12:12:35.471Z,1.80
2022-12-14T12:15:03.086Z,1.70
2022-12-14T12:17:42.324Z,1.70
2022-12-14T12:20:27.484Z,1.70
2022-12-14T12:22:59.014Z,1.60
2022-12-14T12:25:36.995Z,1.60
2022-12-14T12:28:23.227Z,1.50
2022-12-14T12:30:53.155Z,1.50
2022-12-14T12:33:31.504Z,1.40
2022-12-14T12:36:05.273Z,1.40
2022-12-14T12:38:55.686Z,1.30
2022-12-14T12:41:44.607Z,1.30
2022-12-14T12:44:44.175Z,1.30
2022-12-14T12:47:41.548Z,1.30
2022-12-14T12:50:18.904Z,1.30
2022-12-14T12:53:12.510Z,1.30
2022-12-14T12:55:47.216Z,1.30
2022-12-14T12:58:24.952Z,1.30
2022-12-14T13:00:55.659Z,1.30
2022-12-14T13:03:37.581Z,1.30
2022-12-14T13:06:20.343Z,1.30
2022-12-14T13:08:51.657Z,1.40
2022-12-14T13:11:26.548Z,1.40
2022-12-14T13:13:58.099Z,1.50
2022-12-14T13:16:37.608Z,1.60
2022-12-14T13:19:48.936Z,1.60
2022-12-14T13:22:06.589Z,1.70
2022-12-14T13:24:34.000Z,1.80
2022-12-14T13:27:40.782Z,1.80
2022-12-14T13:30:50.543Z,1.90
2022-12-14T13:34:05.376Z,2.00
2022-12-14T13:36:40.761Z,2.00
2022-12-14T13:39:10.206Z,2.00
2022-12-14T13:41:49.068Z,2.00
2022-12-14T13:44:55.161Z,2.00
2022-12-14T13:47:30.439Z,2.00
2022-12-14T13:52:49.734Z,1.70
2022-12-14T13:55:32.001Z,1.60
2022-12-14T13:58:14.076Z,1.50
2022-12-14T14:00:58.889Z,1.50
2022-12-14T14:03:35.165Z,1.50
2022-12-14T14:06:08.394Z,1.40
2022-12-14T14:08:41.773Z,1.40
2022-12-14T14:11:37.001Z,1.40
2022-12-14T14:14:04.419Z,1.40
2022-12-14T14:16:39.023Z,1.40
2022-12-14T14:19:17.858Z,1.40
2022-12-14T14:22:22.303Z,1.40
2022-12-14T14:25:37.262Z,1.30
2022-12-14T14:28:04.447Z,1.40
2022-12-14T14:30:57.040Z,1.30
2022-12-14T14:33:45.535Z,1.40
2022-12-14T14:36:30.919Z,1.30
2022-12-14T14:39:54.226Z,1.30
2022-12-14T14:42:22.323Z,1.30
2022-12-14T14:45:05.655Z,1.30
2022-12-14T14:47:38.249Z,1.30
2022-12-14T14:50:16.122Z,1.30
2022-12-14T14:52:42.930Z,1.30
2022-12-14T14:58:25.673Z,1.40
2022-12-14T15:01:01.716Z,1.40
2022-12-14T15:03:45.003Z,1.40
2022-12-14T15:06:21.110Z,1.40
2022-12-14T15:09:00.377Z,1.40
2022-12-14T15:11:31.245Z,1.40
2022-12-14T15:14:02.611Z,1.50
2022-12-14T15:16:41.529Z,1.40
2022-12-14T15:19:24.798Z,1.40
2022-12-14T15:22:00.020Z,1.40
2022-12-14T15:24:27.331Z,1.40
2022-12-14T15:26:54.469Z,1.50
2022-12-14T15:29:27.782Z,1.40
2022-12-14T15:31:59.791Z,1.40
2022-12-14T15:34:27.757Z,1.40
2022-12-14T15:36:56.020Z,1.40
2022-12-14T15:39:40.015Z,1.40
2022-12-14T15:42:12.114Z,1.40
2022-12-14T15:44:43.743Z,1.50
2022-12-14T15:47:22.730Z,1.50
2022-12-14T15:49:53.358Z,1.50
2022-12-14T15:52:29.418Z,1.60
2022-12-14T15:54:56.871Z,1.60
2022-12-14T15:57:24.387Z,1.60
2022-12-14T15:59:54.980Z,1.60
2022-12-14T16:02:30.635Z,1.60
2022-12-14T16:05:01.141Z,1.60
2022-12-14T16:07:41.804Z,1.70
2022-12-14T16:10:26.211Z,1.70
2022-12-14T16:13:09.681Z,1.70
2022-12-14T16:15:36.396Z,1.70
2022-12-14T16:18:03.885Z,1.70
2022-12-14T16:20:38.265Z,1.70
2022-12-14T16:23:15.741Z,1.70
2022-12-14T16:25:58.635Z,1.70
2022-12-14T16:28:32.681Z,1.80
2022-12-14T16:31:01.596Z,1.80
2022-12-14T16:33:29.988Z,1.80
2022-12-14T16:36:03.896Z,1.80
2022-12-14T16:38:33.088Z,1.80
2022-12-14T16:41:02.402Z,1.80
2022-12-14T16:43:32.715Z,1.80
2022-12-14T16:46:05.815Z,1.80
2022-12-14T16:48:35.827Z,1.80
2022-12-14T16:51:38.279Z,1.80
2022-12-14T16:54:25.527Z,1.80
2022-12-14T16:56:57.227Z,1.80
2022-12-14T16:59:43.838Z,1.80
2022-12-14T17:02:35.169Z,1.80
2022-12-14T17:05:23.548Z,1.80
2022-12-14T17:07:50.298Z,1.80
2022-12-14T17:10:25.167Z,1.80
2022-12-14T17:12:56.782Z,1.80
2022-12-14T17:15:24.898Z,1.80
2022-12-14T17:17:54.351Z,1.80
2022-12-14T17:20:29.985Z,1.90
2022-12-14T17:22:59.844Z,1.80
2022-12-14T17:25:27.803Z,1.90
2022-12-14T17:27:54.602Z,1.80
2022-12-14T17:30:23.682Z,1.90
2022-12-14T17:32:52.620Z,1.90
2022-12-14T17:35:21.188Z,1.90
2022-12-14T17:37:49.351Z,1.90
2022-12-14T17:40:16.512Z,1.90
2022-12-14T17:42:49.369Z,1.90
2022-12-14T17:45:27.544Z,2.00
2022-12-14T17:47:54.662Z,2.00
2022-12-14T17:50:21.974Z,1.90
2022-12-14T17:52:50.354Z,1.90
2022-12-14T17:55:20.423Z,1.90
2022-12-14T17:57:47.972Z,1.90
2022-12-14T18:00:42.751Z,2.00
2022-12-14T18:03:11.306Z,1.90
2022-12-14T18:05:43.459Z,2.00
2022-12-14T18:08:13.430Z,2.00
2022-12-14T18:10:41.569Z,2.00
2022-12-14T18:13:09.865Z,2.00
2022-12-14T18:15:40.943Z,2.00
2022-12-14T18:18:08.248Z,2.10
2022-12-14T18:20:35.830Z,2.10
2022-12-14T18:23:02.571Z,2.10
2022-12-14T18:25:35.865Z,2.10
2022-12-14T18:28:05.722Z,2.10
2022-12-14T18:30:40.570Z,2.10
2022-12-14T18:33:15.997Z,2.20
2022-12-14T18:35:44.062Z,2.20
2022-12-14T18:38:11.314Z,2.10
2022-12-14T18:40:39.371Z,2.20
2022-12-14T18:43:06.311Z,2.10
2022-12-14T18:45:35.035Z,2.10
2022-12-14T18:48:02.003Z,2.20
2022-12-14T18:50:30.053Z,2.20
2022-12-14T18:52:57.283Z,2.20
2022-12-14T18:55:30.913Z,2.20
2022-12-14T18:58:00.675Z,2.20
2022-12-14T19:00:30.707Z,2.20
2022-12-14T19:02:58.862Z,2.20
2022-12-14T19:05:26.589Z,2.20
2022-12-14T19:07:53.781Z,2.20
2022-12-14T19:10:23.282Z,2.10
2022-12-14T19:12:50.695Z,2.10
2022-12-14T19:15:20.992Z,2.10
2022-12-14T19:17:48.135Z,2.00
2022-12-14T19:20:17.223Z,2.00
2022-12-14T19:22:45.092Z,2.00
2022-12-14T19:25:12.859Z,1.90
2022-12-14T19:28:15.450Z,1.90
2022-12-14T19:30:27.192Z,1.90
2022-12-14T19:32:55.980Z,1.90
2022-12-14T19:35:24.094Z,1.80
2022-12-14T19:37:51.675Z,1.80
2022-12-14T19:40:19.532Z,1.80
2022-12-14T19:42:46.915Z,1.80
2022-12-14T19:45:14.595Z,1.80
2022-12-14T19:47:42.503Z,1.80
2022-12-14T19:50:11.273Z,1.80
2022-12-14T19:52:37.967Z,1.80
2022-12-14T19:55:04.988Z,1.80
2022-12-14T19:57:31.810Z,1.80
2022-12-14T19:59:59.971Z,1.80
2022-12-14T20:02:27.110Z,1.80
2022-12-14T20:04:54.070Z,1.80
2022-12-14T20:07:20.807Z,1.80
2022-12-14T20:09:47.543Z,1.80
2022-12-14T20:12:14.416Z,1.90
2022-12-14T20:14:42.572Z,1.90
2022-12-14T20:17:10.754Z,1.80
2022-12-14T20:19:39.333Z,1.80
2022-12-14T20:22:08.562Z,1.80
2022-12-14T20:24:35.862Z,1.80
2022-12-14T20:27:02.603Z,1.80
2022-12-14T20:29:29.406Z,1.80
2022-12-14T20:31:56.398Z,1.80
2022-12-14T20:34:23.296Z,1.80
2022-12-14T20:36:50.091Z,1.80
2022-12-14T20:39:16.775Z,1.80
2022-12-14T20:41:43.602Z,1.80
2022-12-14T20:44:15.199Z,1.80
2022-12-14T20:46:44.923Z,1.80
2022-12-14T20:49:14.570Z,1.80
2022-12-14T20:51:42.709Z,1.80
2022-12-14T20:54:12.919Z,1.80
2022-12-14T20:56:39.930Z,1.80
2022-12-14T20:59:07.960Z,1.80
2022-12-14T21:01:36.716Z,1.90
2022-12-14T21:04:04.274Z,1.90
2022-12-14T21:06:32.983Z,1.80
2022-12-14T21:09:09.431Z,1.80
2022-12-14T21:12:00.662Z,1.80
2022-12-14T21:14:31.038Z,1.80
2022-12-14T21:16:57.934Z,1.80
2022-12-14T21:19:24.971Z,1.80
2022-12-14T21:21:54.003Z,1.80
2022-12-14T21:24:44.822Z,1.80
2022-12-14T21:27:09.983Z,1.80
2022-12-14T21:29:36.714Z,1.80
2022-12-14T21:32:04.362Z,1.90
2022-12-14T21:34:31.920Z,1.90
2022-12-14T21:36:59.151Z,1.80
2022-12-14T21:39:25.929Z,1.90
2022-12-14T21:42:12.700Z,1.90
2022-12-14T21:44:41.410Z,1.90
2022-12-14T21:47:11.672Z,1.90
2022-12-14T21:49:39.945Z,1.90
2022-12-14T21:52:07.654Z,1.80
2022-12-14T21:54:34.714Z,1.80
2022-12-14T21:57:19.922Z,1.80
2022-12-14T21:59:46.637Z,1.80
2022-12-14T22:02:19.942Z,1.80
2022-12-14T22:04:47.679Z,1.80
2022-12-14T22:07:16.076Z,1.70
2022-12-14T22:09:43.335Z,1.70
2022-12-14T22:12:17.723Z,1.70
2022-12-14T22:14:44.670Z,1.70
2022-12-14T22:17:13.115Z,1.70
2022-12-14T22:19:40.042Z,1.70
2022-12-14T22:22:07.212Z,1.70
2022-12-14T22:24:33.946Z,1.70
2022-12-14T22:27:00.718Z,1.70
2022-12-14T22:29:27.509Z,1.70
2022-12-14T22:31:54.266Z,1.70
2022-12-14T22:34:23.187Z,1.70
2022-12-14T22:36:51.331Z,1.70
2022-12-14T22:39:18.978Z,1.60
2022-12-14T22:41:46.896Z,1.60
2022-12-14T22:44:13.622Z,1.60
2022-12-14T22:46:40.936Z,1.60
2022-12-14T22:49:08.680Z,1.60
2022-12-14T22:51:35.650Z,1.60
2022-12-14T22:54:03.084Z,1.60
2022-12-14T22:56:37.206Z,1.60
2022-12-14T22:59:09.079Z,1.60
2022-12-14T23:01:37.499Z,1.60
2022-12-14T23:04:06.200Z,1.60
2022-12-14T23:06:33.805Z,1.70
2022-12-14T23:09:19.068Z,1.70
2022-12-14T23:12:06.607Z,1.60
2022-12-14T23:14:56.250Z,1.70
2022-12-14T23:17:41.728Z,1.70
2022-12-14T23:20:27.654Z,1.70
2022-12-14T23:23:13.124Z,1.70
2022-12-14T23:25:58.586Z,1.70
2022-12-14T23:28:43.917Z,1.70
2022-12-14T23:31:35.189Z,1.70
2022-12-14T23:34:20.668Z,1.70
2022-12-14T23:37:06.219Z,1.70
2022-12-14T23:39:52.719Z,1.70
2022-12-14T23:42:38.054Z,1.70
2022-12-14T23:45:24.964Z,1.70
2022-12-14T23:48:10.439Z,1.60
2022-12-14T23:50:55.826Z,1.60
2022-12-14T23:53:41.273Z,1.50
2022-12-14T23:56:26.788Z,1.40
2022-12-14T23:59:14.154Z,1.40
